createdAt,value
2023-01-15T00:00:10.802Z,1.10
2023-01-15T00:02:17.423Z,1.15
2023-01-15T00:04:22.471Z,1.00
2023-01-15T00:06:32.780Z,1.00
2023-01-15T00:08:38.371Z,0.90
2023-01-15T00:10:43.303Z,1.10
2023-01-15T00:12:48.157Z,1.10
2023-01-15T00:14:53.215Z,1.50
2023-01-15T00:16:58.106Z,1.10
2023-01-15T00:19:04.726Z,0.80
2023-01-15T00:21:10.909Z,0.85
2023-01-15T00:23:38.602Z,1.10
2023-01-15T00:25:55.888Z,1.10
2023-01-15T00:27:58.263Z,1.10
2023-01-15T00:30:03.075Z,1.02
2023-01-15T00:32:09.821Z,1.10
2023-01-15T00:34:14.745Z,0.80
2023-01-15T00:36:19.669Z,1.33
2023-01-15T00:38:27.069Z,0.95
2023-01-15T00:40:34.688Z,0.90
2023-01-15T00:42:39.508Z,1.00
2023-01-15T00:44:44.400Z,0.82
2023-01-15T00:46:49.454Z,0.77
2023-01-15T00:48:54.315Z,1.10
2023-01-15T00:51:00.521Z,0.90
2023-01-15T00:55:13.082Z,0.73
2023-01-15T00:57:19.069Z,1.08
2023-01-15T00:59:26.855Z,1.08
2023-01-15T01:01:32.043Z,0.70
2023-01-15T01:03:37.057Z,0.77
2023-01-15T01:05:41.891Z,0.98
2023-01-15T01:07:46.728Z,0.85
2023-01-15T01:09:51.982Z,0.90
2023-01-15T01:12:00.570Z,0.80
2023-01-15T01:14:05.499Z,0.82
2023-01-15T01:16:24.951Z,0.88
2023-01-15T01:18:30.901Z,1.00
2023-01-15T01:20:37.041Z,1.10
2023-01-15T01:22:43.585Z,1.20
2023-01-15T01:24:51.464Z,0.90
2023-01-15T01:26:57.227Z,0.73
2023-01-15T01:29:05.955Z,0.88
2023-01-15T01:31:12.151Z,0.93
2023-01-15T01:33:19.672Z,1.02
2023-01-15T01:35:24.468Z,0.70
2023-01-15T01:37:30.736Z,1.00
2023-01-15T01:39:35.632Z,0.55
2023-01-15T01:41:40.624Z,0.80
2023-01-15T01:44:01.198Z,0.90
2023-01-15T01:46:08.908Z,0.60
2023-01-15T01:48:14.160Z,0.60
2023-01-15T01:50:22.120Z,0.75
2023-01-15T01:52:30.452Z,0.60
2023-01-15T01:54:38.929Z,0.70
2023-01-15T01:56:44.799Z,0.60
2023-01-15T01:58:55.071Z,0.70
2023-01-15T02:01:00.390Z,0.40
2023-01-15T02:03:10.711Z,0.60
2023-01-15T02:05:20.698Z,0.50
2023-01-15T02:07:28.005Z,0.65
2023-01-15T02:09:33.173Z,0.43
2023-01-15T02:11:38.827Z,0.60
2023-01-15T02:13:50.316Z,0.47
2023-01-15T02:16:03.362Z,0.50
2023-01-15T02:18:19.665Z,0.65
2023-01-15T02:20:32.496Z,0.60
2023-01-15T02:22:47.958Z,0.55
2023-01-15T02:25:04.650Z,0.40
2023-01-15T02:27:18.132Z,0.52
2023-01-15T02:29:31.903Z,0.90
2023-01-15T02:31:40.281Z,0.40
2023-01-15T02:33:50.824Z,0.40
2023-01-15T02:36:01.155Z,0.60
2023-01-15T02:38:13.956Z,0.60
2023-01-15T02:40:21.557Z,0.40
2023-01-15T02:42:33.262Z,0.40
2023-01-15T02:44:43.967Z,0.60
2023-01-15T02:46:53.219Z,0.40
2023-01-15T02:49:00.289Z,0.45
2023-01-15T02:51:12.974Z,0.75
2023-01-15T02:53:33.411Z,0.55
2023-01-15T02:55:43.693Z,0.47
2023-01-15T02:57:56.245Z,0.50
2023-01-15T03:00:06.748Z,0.40
2023-01-15T03:02:16.795Z,0.50
2023-01-15T03:04:26.550Z,0.22
2023-01-15T03:06:40.220Z,0.50
2023-01-15T03:08:46.226Z,0.77
2023-01-15T03:10:55.712Z,0.50
2023-01-15T03:13:06.277Z,0.50
2023-01-15T03:15:44.494Z,0.65
2023-01-15T03:17:56.833Z,0.50
2023-01-15T03:20:09.444Z,0.40
2023-01-15T03:22:19.932Z,0.35
2023-01-15T03:24:30.468Z,0.60
2023-01-15T03:26:36.433Z,0.40
2023-01-15T03:28:46.132Z,0.50
2023-01-15T03:30:51.904Z,0.50
2023-01-15T03:32:58.355Z,0.40
2023-01-15T03:35:04.287Z,0.50
2023-01-15T03:37:10.380Z,0.70
2023-01-15T03:39:16.028Z,0.60
2023-01-15T03:41:43.674Z,0.30
2023-01-15T03:43:59.163Z,0.50
2023-01-15T03:46:09.644Z,0.60
2023-01-15T03:48:23.564Z,0.50
2023-01-15T03:50:34.482Z,0.43
2023-01-15T03:52:47.989Z,0.50
2023-01-15T03:55:02.380Z,0.40
2023-01-15T03:57:13.990Z,0.70
2023-01-15T03:59:26.279Z,0.40
2023-01-15T04:01:42.732Z,0.60
2023-01-15T04:03:50.630Z,0.40
2023-01-15T04:05:59.679Z,0.50
2023-01-15T04:08:07.507Z,0.45
2023-01-15T04:10:14.621Z,0.52
2023-01-15T04:12:19.503Z,0.45
2023-01-15T04:14:32.750Z,0.50
2023-01-15T04:16:44.250Z,0.85
2023-01-15T04:18:50.744Z,0.80
2023-01-15T04:20:56.797Z,0.88
2023-01-15T04:23:01.664Z,0.70
2023-01-15T04:25:06.978Z,1.00
2023-01-15T04:27:13.577Z,0.70
2023-01-15T04:29:18.355Z,0.93
2023-01-15T04:31:25.955Z,0.80
2023-01-15T04:33:30.832Z,0.88
2023-01-15T04:35:36.230Z,0.50
2023-01-15T04:37:41.076Z,0.70
2023-01-15T04:39:46.346Z,0.80
2023-01-15T04:42:05.440Z,0.40
2023-01-15T04:44:07.909Z,0.70
2023-01-15T04:46:12.851Z,0.60
2023-01-15T04:48:20.296Z,0.40
2023-01-15T04:50:25.052Z,0.60
2023-01-15T04:52:29.997Z,0.30
2023-01-15T04:54:34.957Z,0.40
2023-01-15T04:56:42.961Z,0.50
2023-01-15T04:58:47.869Z,0.40
2023-01-15T05:00:52.711Z,0.40
2023-01-15T05:02:57.613Z,0.60
2023-01-15T05:05:05.077Z,0.50
2023-01-15T05:07:09.965Z,0.40
2023-01-15T05:09:14.796Z,0.63
2023-01-15T05:11:19.852Z,0.63
2023-01-15T05:13:24.686Z,0.30
2023-01-15T05:15:29.583Z,0.43
2023-01-15T05:17:35.570Z,0.40
2023-01-15T05:19:40.594Z,0.47
2023-01-15T05:21:48.291Z,0.40
2023-01-15T05:23:55.876Z,0.40
2023-01-15T05:26:00.853Z,0.70
2023-01-15T05:28:05.778Z,0.50
2023-01-15T05:30:12.304Z,0.30
2023-01-15T05:32:17.181Z,0.50
2023-01-15T05:34:22.008Z,0.35
2023-01-15T05:36:29.121Z,0.38
2023-01-15T05:38:37.105Z,0.35
2023-01-15T05:40:41.894Z,0.30
2023-01-15T05:42:46.861Z,0.45
2023-01-15T05:44:51.871Z,0.40
2023-01-15T05:46:58.787Z,0.82
2023-01-15T05:49:04.333Z,0.40
2023-01-15T05:51:09.342Z,0.43
2023-01-15T05:53:14.139Z,0.47
2023-01-15T05:55:21.702Z,0.40
2023-01-15T05:57:26.518Z,0.40
2023-01-15T05:59:33.266Z,0.43
2023-01-15T06:01:38.717Z,0.30
2023-01-15T06:03:44.364Z,0.43
2023-01-15T06:05:53.397Z,0.30
2023-01-15T06:07:59.995Z,0.50
2023-01-15T06:10:06.219Z,0.30
2023-01-15T06:12:13.684Z,0.45
2023-01-15T06:14:19.061Z,0.50
2023-01-15T06:16:25.273Z,0.28
2023-01-15T06:18:30.205Z,0.50
2023-01-15T06:20:38.032Z,0.40
2023-01-15T06:22:42.833Z,0.40
2023-01-15T06:24:47.664Z,0.30
2023-01-15T06:26:53.003Z,0.50
2023-01-15T06:31:08.528Z,0.60
2023-01-15T06:33:13.387Z,0.52
2023-01-15T06:35:18.394Z,0.50
2023-01-15T06:37:23.231Z,0.43
2023-01-15T06:39:28.172Z,0.30
2023-01-15T06:41:45.368Z,0.30
2023-01-15T06:44:08.379Z,0.30
2023-01-15T06:46:28.779Z,0.30
2023-01-15T06:48:33.740Z,0.40
2023-01-15T06:50:38.667Z,0.43
2023-01-15T06:52:43.593Z,0.17
2023-01-15T06:54:48.668Z,0.30
2023-01-15T06:56:53.559Z,0.20
2023-01-15T06:58:58.979Z,0.20
2023-01-15T07:01:03.893Z,0.10
2023-01-15T07:03:14.313Z,0.20
2023-01-15T07:05:19.387Z,0.40
2023-01-15T07:07:25.182Z,0.20
2023-01-15T07:09:29.990Z,0.40
2023-01-15T07:11:35.809Z,0.30
2023-01-15T07:13:40.651Z,0.28
2023-01-15T07:15:45.494Z,0.30
2023-01-15T07:17:50.299Z,0.30
2023-01-15T07:19:57.670Z,0.30
2023-01-15T07:22:02.491Z,0.40
2023-01-15T07:24:08.463Z,0.22
2023-01-15T07:26:13.307Z,0.30
2023-01-15T07:28:18.389Z,0.30
2023-01-15T07:32:28.115Z,0.28
2023-01-15T07:34:33.048Z,0.45
2023-01-15T07:36:40.968Z,0.47
2023-01-15T07:38:45.842Z,0.40
2023-01-15T07:41:11.409Z,0.40
2023-01-15T07:43:28.756Z,0.35
2023-01-15T07:45:51.965Z,0.38
2023-01-15T07:48:09.857Z,0.65
2023-01-15T07:50:17.329Z,0.47
2023-01-15T07:52:25.584Z,0.80
2023-01-15T07:54:30.554Z,0.75
2023-01-15T07:56:35.485Z,0.80
2023-01-15T07:58:40.306Z,0.90
2023-01-15T08:00:45.179Z,0.50
2023-01-15T08:02:50.970Z,0.40
2023-01-15T08:04:55.970Z,0.50
2023-01-15T08:07:02.886Z,0.38
2023-01-15T08:09:10.511Z,0.32
2023-01-15T08:11:27.780Z,0.50
2023-01-15T08:13:47.599Z,0.60
2023-01-15T08:15:52.448Z,0.70
2023-01-15T08:17:57.257Z,0.30
2023-01-15T08:20:02.248Z,0.40
2023-01-15T08:22:07.189Z,0.60
2023-01-15T08:24:14.728Z,0.60
2023-01-15T08:26:19.562Z,0.70
2023-01-15T08:28:24.735Z,0.80
2023-01-15T08:30:29.555Z,3.20
2023-01-15T08:32:35.044Z,0.70
2023-01-15T08:34:39.974Z,0.68
2023-01-15T08:36:44.864Z,0.77
2023-01-15T08:38:52.049Z,1.50
2023-01-15T08:41:03.868Z,0.50
2023-01-15T08:43:08.664Z,0.90
2023-01-15T08:45:14.941Z,0.80
2023-01-15T08:47:20.480Z,0.82
2023-01-15T08:49:25.570Z,0.60
2023-01-15T08:51:30.524Z,0.65
2023-01-15T08:53:35.481Z,1.08
2023-01-15T08:55:41.009Z,1.20
2023-01-15T08:57:48.682Z,1.00
2023-01-15T08:59:53.538Z,0.90
2023-01-15T09:01:58.462Z,0.65
2023-01-15T09:04:03.313Z,1.23
2023-01-15T09:06:08.835Z,0.80
2023-01-15T09:08:13.647Z,0.85
2023-01-15T09:10:19.745Z,0.70
2023-01-15T09:12:26.621Z,0.85
2023-01-15T09:14:59.717Z,0.68
2023-01-15T09:16:58.987Z,0.80
2023-01-15T09:19:03.932Z,1.35
2023-01-15T09:21:09.046Z,0.90
2023-01-15T09:23:13.955Z,1.10
2023-01-15T09:25:20.184Z,0.73
2023-01-15T09:27:25.175Z,0.80
2023-01-15T09:29:29.994Z,1.20
2023-01-15T09:31:37.541Z,1.35
2023-01-15T09:33:42.333Z,0.98
2023-01-15T09:35:51.241Z,0.90
2023-01-15T09:37:56.567Z,0.80
2023-01-15T09:40:02.486Z,0.90
2023-01-15T09:42:16.304Z,1.10
2023-01-15T09:44:33.728Z,1.35
2023-01-15T09:46:52.468Z,0.80
2023-01-15T09:49:04.647Z,1.80
2023-01-15T09:51:19.593Z,0.88
2023-01-15T09:53:45.792Z,1.30
2023-01-15T09:55:53.411Z,1.15
2023-01-15T09:58:01.957Z,0.88
2023-01-15T10:00:09.046Z,1.45
2023-01-15T10:04:40.118Z,0.93
2023-01-15T10:06:48.781Z,1.10
2023-01-15T10:09:04.458Z,0.90
2023-01-15T10:11:45.741Z,1.05
2023-01-15T10:13:52.544Z,1.33
2023-01-15T10:15:58.674Z,0.80
2023-01-15T10:18:08.899Z,1.30
2023-01-15T10:20:40.766Z,0.90
2023-01-15T10:22:59.690Z,0.75
2023-01-15T10:25:07.300Z,1.05
2023-01-15T10:27:21.079Z,1.08
2023-01-15T10:29:33.178Z,2.40
2023-01-15T10:31:54.132Z,3.03
2023-01-15T10:34:22.755Z,2.10
2023-01-15T10:36:36.484Z,1.25
2023-01-15T10:38:48.610Z,1.08
2023-01-15T10:41:20.389Z,0.80
2023-01-15T10:43:30.446Z,0.73
2023-01-15T10:45:39.367Z,2.20
2023-01-15T10:47:51.283Z,1.13
2023-01-15T10:50:00.211Z,1.42
2023-01-15T10:52:16.739Z,3.08
2023-01-15T10:54:28.907Z,1.50
2023-01-15T10:56:40.554Z,0.90
2023-01-15T10:58:52.218Z,0.93
2023-01-15T11:01:02.625Z,0.70
2023-01-15T11:03:11.844Z,1.40
2023-01-15T11:05:22.600Z,1.45
2023-01-15T11:07:35.864Z,3.33
2023-01-15T11:09:41.095Z,2.17
2023-01-15T11:12:01.847Z,1.48
2023-01-15T11:14:19.152Z,1.20
2023-01-15T11:16:40.018Z,1.35
2023-01-15T11:19:00.249Z,0.60
2023-01-15T11:21:14.665Z,1.40
2023-01-15T11:23:23.513Z,1.08
2023-01-15T11:25:31.242Z,4.13
2023-01-15T11:27:38.730Z,2.42
2023-01-15T11:29:46.780Z,3.03
2023-01-15T11:31:52.259Z,1.88
2023-01-15T11:34:02.287Z,2.00
2023-01-15T11:36:21.942Z,2.90
2023-01-15T11:38:28.277Z,2.05
2023-01-15T11:40:33.630Z,1.50
2023-01-15T11:42:53.325Z,2.10
2023-01-15T11:45:12.776Z,1.08
2023-01-15T11:47:34.156Z,0.70
2023-01-15T11:49:52.086Z,1.02
2023-01-15T11:52:01.389Z,1.05
2023-01-15T11:54:11.056Z,1.30
2023-01-15T11:56:19.336Z,1.67
2023-01-15T11:58:25.139Z,1.05
2023-01-15T12:00:33.846Z,1.15
2023-01-15T12:02:42.971Z,0.90
2023-01-15T12:04:55.651Z,0.70
2023-01-15T12:07:04.692Z,0.93
2023-01-15T12:09:21.754Z,1.00
2023-01-15T12:11:59.836Z,0.80
2023-01-15T12:14:21.877Z,28.90
2023-01-15T12:16:35.648Z,2.17
2023-01-15T12:18:53.088Z,1.17
2023-01-15T12:21:06.759Z,1.00
2023-01-15T12:23:40.020Z,1.33
2023-01-15T12:25:56.015Z,1.10
2023-01-15T12:28:04.832Z,0.88
2023-01-15T12:30:22.212Z,1.08
2023-01-15T12:32:32.719Z,1.35
2023-01-15T12:34:44.507Z,1.23
2023-01-15T12:36:55.696Z,0.93
2023-01-15T12:39:06.616Z,1.05
2023-01-15T12:41:19.253Z,1.40
2023-01-15T12:43:40.351Z,1.15
2023-01-15T12:45:50.952Z,0.90
2023-01-15T12:48:03.001Z,1.00
2023-01-15T12:50:23.397Z,1.85
2023-01-15T12:52:33.994Z,1.20
2023-01-15T12:54:47.692Z,2.00
2023-01-15T12:57:02.935Z,1.83
2023-01-15T12:59:13.232Z,4.88
2023-01-15T13:01:32.808Z,7.05
2023-01-15T13:03:51.091Z,5.50
2023-01-15T13:06:00.743Z,7.00
2023-01-15T13:08:13.615Z,5.18
2023-01-15T13:10:25.138Z,2.17
2023-01-15T13:12:31.959Z,0.75
2023-01-15T13:14:37.726Z,6.10
2023-01-15T13:16:51.449Z,7.47
2023-01-15T13:19:09.731Z,2.10
2023-01-15T13:21:17.239Z,0.80
2023-01-15T13:23:40.337Z,1.30
2023-01-15T13:26:01.215Z,2.15
2023-01-15T13:28:21.456Z,1.23
2023-01-15T13:30:48.005Z,0.93
2023-01-15T13:32:56.615Z,1.25
2023-01-15T13:35:10.132Z,0.80
2023-01-15T13:37:24.957Z,1.00
2023-01-15T13:39:39.912Z,1.50
2023-01-15T13:42:04.140Z,1.40
2023-01-15T13:44:15.630Z,1.42
2023-01-15T13:46:23.871Z,5.88
2023-01-15T13:48:33.837Z,13.88
2023-01-15T13:50:43.278Z,19.40
2023-01-15T13:52:49.386Z,33.60
2023-01-15T13:54:55.766Z,21.88
2023-01-15T13:57:13.288Z,6.68
2023-01-15T13:59:42.685Z,6.75
2023-01-15T14:01:47.656Z,3.15
2023-01-15T14:06:12.594Z,1.95
2023-01-15T14:08:19.696Z,3.55
2023-01-15T14:10:36.840Z,7.95
2023-01-15T14:12:57.259Z,9.25
2023-01-15T14:15:28.694Z,5.80
2023-01-15T14:18:13.492Z,6.38
2023-01-15T14:20:39.753Z,4.72
2023-01-15T14:25:21.478Z,3.85
2023-01-15T14:27:44.374Z,11.50
2023-01-15T14:30:11.616Z,20.20
2023-01-15T14:32:30.931Z,5.63
2023-01-15T14:34:38.533Z,1.77
2023-01-15T14:36:52.243Z,1.60
2023-01-15T14:39:00.891Z,1.33
2023-01-15T14:41:12.713Z,0.90
2023-01-15T14:43:20.421Z,0.90
2023-01-15T14:45:32.329Z,1.25
2023-01-15T14:47:39.872Z,1.02
2023-01-15T14:49:50.093Z,1.15
2023-01-15T14:51:55.142Z,1.80
2023-01-15T14:54:02.344Z,2.10
2023-01-15T14:56:16.286Z,2.55
2023-01-15T14:58:35.667Z,4.45
2023-01-15T15:00:51.020Z,4.07
2023-01-15T15:02:56.101Z,2.30
2023-01-15T15:05:03.157Z,4.05
2023-01-15T15:07:14.392Z,1.15
2023-01-15T15:09:36.388Z,1.17
2023-01-15T15:12:01.019Z,2.97
2023-01-15T15:14:09.003Z,11.75
2023-01-15T15:16:24.912Z,2.75
2023-01-15T15:18:36.314Z,1.98
2023-01-15T15:20:54.128Z,1.80
2023-01-15T15:23:05.055Z,1.73
2023-01-15T15:25:17.625Z,1.13
2023-01-15T15:27:26.811Z,1.42
2023-01-15T15:29:32.008Z,1.58
2023-01-15T15:31:42.541Z,4.35
2023-01-15T15:33:49.873Z,2.90
2023-01-15T15:35:57.737Z,3.05
2023-01-15T15:38:06.326Z,2.00
2023-01-15T15:40:20.140Z,2.13
2023-01-15T15:42:43.691Z,3.60
2023-01-15T15:45:06.197Z,4.20
2023-01-15T15:47:37.133Z,6.68
2023-01-15T15:49:42.993Z,4.00
2023-01-15T15:51:49.664Z,6.90
2023-01-15T15:54:05.139Z,5.75
2023-01-15T15:56:10.116Z,5.60
2023-01-15T15:58:24.087Z,6.25
2023-01-15T16:00:33.513Z,6.00
2023-01-15T16:02:44.210Z,5.07
2023-01-15T16:04:50.588Z,3.67
2023-01-15T16:06:55.437Z,4.25
2023-01-15T16:09:04.972Z,8.35
2023-01-15T16:11:13.738Z,5.53
2023-01-15T16:13:26.436Z,5.38
2023-01-15T16:15:34.065Z,5.10
2023-01-15T16:17:44.104Z,2.40
2023-01-15T16:19:49.794Z,2.50
2023-01-15T16:21:55.919Z,2.10
2023-01-15T16:24:04.440Z,2.20
2023-01-15T16:26:15.371Z,2.42
2023-01-15T16:28:27.525Z,1.88
2023-01-15T16:30:36.681Z,4.07
2023-01-15T16:32:49.867Z,3.17
2023-01-15T16:35:03.611Z,2.50
2023-01-15T16:37:27.115Z,5.65
2023-01-15T16:39:39.966Z,4.40
2023-01-15T16:41:48.561Z,2.72
2023-01-15T16:43:58.405Z,2.67
2023-01-15T16:46:07.426Z,1.85
2023-01-15T16:48:30.074Z,2.80
2023-01-15T16:50:36.055Z,2.15
2023-01-15T16:52:54.643Z,2.28
2023-01-15T16:55:01.315Z,2.13
2023-01-15T16:57:08.008Z,1.80
2023-01-15T16:59:19.560Z,2.70
2023-01-15T17:01:35.312Z,2.70
2023-01-15T17:05:50.145Z,3.58
2023-01-15T17:07:58.061Z,3.13
2023-01-15T17:10:04.508Z,3.92
2023-01-15T17:12:12.272Z,4.60
2023-01-15T17:14:24.518Z,4.25
2023-01-15T17:16:29.401Z,4.32
2023-01-15T17:18:34.783Z,5.03
2023-01-15T17:20:44.191Z,3.65
2023-01-15T17:22:50.778Z,3.50
2023-01-15T17:24:57.652Z,3.08
2023-01-15T17:27:02.559Z,3.60
2023-01-15T17:29:07.426Z,3.65
2023-01-15T17:31:23.102Z,2.40
2023-01-15T17:33:33.232Z,2.75
2023-01-15T17:35:42.933Z,2.75
2023-01-15T17:37:47.847Z,2.35
2023-01-15T17:39:52.807Z,2.15
2023-01-15T17:41:57.729Z,2.63
2023-01-15T17:44:03.065Z,1.88
2023-01-15T17:46:08.381Z,2.00
2023-01-15T17:48:13.662Z,2.28
2023-01-15T17:50:20.240Z,2.40
2023-01-15T17:52:27.701Z,2.80
2023-01-15T17:54:44.991Z,2.95
2023-01-15T17:57:02.226Z,3.50
2023-01-15T17:59:19.539Z,3.47
2023-01-15T18:01:39.844Z,3.63
2023-01-15T18:04:02.324Z,4.18
2023-01-15T18:06:08.715Z,3.22
2023-01-15T18:08:18.843Z,3.90
2023-01-15T18:10:23.814Z,3.60
2023-01-15T18:12:28.896Z,3.72
2023-01-15T18:14:34.050Z,3.42
2023-01-15T18:16:39.161Z,2.42
2023-01-15T18:20:51.394Z,2.00
2023-01-15T18:22:56.607Z,1.70
2023-01-15T18:27:08.872Z,1.90
2023-01-15T18:29:13.908Z,3.13
2023-01-15T18:33:23.411Z,2.65
2023-01-15T18:35:28.215Z,3.30
2023-01-15T18:37:34.550Z,3.20
2023-01-15T18:39:39.843Z,3.58
2023-01-15T18:41:59.710Z,4.93
2023-01-15T18:44:17.554Z,3.67
2023-01-15T18:46:35.046Z,3.33
2023-01-15T18:48:39.895Z,3.55
2023-01-15T18:50:44.985Z,3.00
2023-01-15T18:52:55.894Z,2.45
2023-01-15T18:55:00.748Z,3.30
2023-01-15T18:57:08.723Z,4.93
2023-01-15T18:59:15.902Z,4.43
2023-01-15T19:01:20.810Z,2.65
2023-01-15T19:03:26.294Z,2.72
2023-01-15T19:05:31.189Z,5.15
2023-01-15T19:07:38.319Z,3.33
2023-01-15T19:09:43.200Z,4.40
2023-01-15T19:11:47.976Z,4.55
2023-01-15T19:14:07.669Z,5.68
2023-01-15T19:16:25.723Z,3.90
2023-01-15T19:18:53.491Z,3.33
2023-01-15T19:20:58.291Z,5.45
2023-01-15T19:23:03.403Z,2.60
2023-01-15T19:25:11.152Z,3.80
2023-01-15T19:27:16.777Z,4.25
2023-01-15T19:29:24.226Z,3.55
2023-01-15T19:31:41.495Z,4.20
2023-01-15T19:33:46.493Z,2.95
2023-01-15T19:35:55.762Z,3.03
2023-01-15T19:38:00.751Z,3.17
2023-01-15T19:40:06.066Z,2.65
2023-01-15T19:42:25.225Z,5.82
2023-01-15T19:44:45.010Z,3.22
2023-01-15T19:47:02.367Z,2.92
2023-01-15T19:49:24.162Z,2.08
2023-01-15T19:51:49.530Z,1.63
2023-01-15T19:53:54.385Z,1.88
2023-01-15T19:55:59.302Z,1.92
2023-01-15T19:58:05.881Z,2.17
2023-01-15T20:00:16.570Z,1.50
2023-01-15T20:02:22.474Z,1.75
2023-01-15T20:04:28.370Z,1.92
2023-01-15T20:06:33.815Z,1.85
2023-01-15T20:08:41.079Z,2.03
2023-01-15T20:10:47.781Z,1.38
2023-01-15T20:13:05.599Z,1.85
2023-01-15T20:15:13.549Z,1.27
2023-01-15T20:17:19.119Z,1.20
2023-01-15T20:19:23.923Z,1.23
2023-01-15T20:21:28.868Z,1.33
2023-01-15T20:23:33.948Z,1.27
2023-01-15T20:25:38.913Z,1.33
2023-01-15T20:27:44.749Z,1.50
2023-01-15T20:29:52.070Z,1.30
2023-01-15T20:31:59.805Z,1.67
2023-01-15T20:34:04.671Z,1.27
2023-01-15T20:36:10.697Z,2.05
2023-01-15T20:38:17.816Z,2.00
2023-01-15T20:40:27.108Z,1.83
2023-01-15T20:42:45.879Z,1.65
2023-01-15T20:44:55.589Z,1.48
2023-01-15T20:47:25.896Z,1.58
2023-01-15T20:49:32.612Z,1.67
2023-01-15T20:51:37.480Z,1.80
2023-01-15T20:53:43.467Z,1.73
2023-01-15T20:55:57.378Z,1.60
2023-01-15T20:58:04.999Z,1.45
2023-01-15T21:00:15.892Z,1.63
2023-01-15T21:02:25.869Z,1.80
2023-01-15T21:04:33.401Z,1.63
2023-01-15T21:06:38.556Z,1.60
2023-01-15T21:08:46.516Z,1.85
2023-01-15T21:10:55.432Z,1.35
2023-01-15T21:13:00.456Z,1.90
2023-01-15T21:15:05.341Z,1.42
2023-01-15T21:17:10.478Z,1.75
2023-01-15T21:19:21.227Z,1.65
2023-01-15T21:21:26.244Z,1.52
2023-01-15T21:23:31.014Z,1.38
2023-01-15T21:25:38.288Z,1.52
2023-01-15T21:27:43.320Z,1.70
2023-01-15T21:29:51.840Z,1.95
2023-01-15T21:31:56.811Z,1.30
2023-01-15T21:34:01.666Z,1.40
2023-01-15T21:36:15.025Z,1.58
2023-01-15T21:38:19.871Z,1.70
2023-01-15T21:40:27.107Z,1.33
2023-01-15T21:42:44.358Z,1.38
2023-01-15T21:44:49.267Z,1.60
2023-01-15T21:46:55.287Z,1.48
2023-01-15T21:49:01.294Z,1.50
2023-01-15T21:51:11.824Z,1.58
2023-01-15T21:53:16.621Z,1.55
2023-01-15T21:55:21.498Z,1.30
2023-01-15T21:57:26.309Z,1.48
2023-01-15T21:59:34.037Z,1.40
2023-01-15T22:01:43.036Z,1.75
2023-01-15T22:03:48.120Z,1.52
2023-01-15T22:05:53.039Z,1.67
2023-01-15T22:08:03.238Z,1.20
2023-01-15T22:10:09.269Z,1.45
2023-01-15T22:12:15.349Z,1.30
2023-01-15T22:14:23.783Z,1.38
2023-01-15T22:16:28.645Z,1.20
2023-01-15T22:18:34.173Z,1.38
2023-01-15T22:20:39.388Z,1.52
2023-01-15T22:24:54.278Z,1.20
2023-01-15T22:26:59.208Z,1.23
2023-01-15T22:29:04.122Z,1.63
2023-01-15T22:31:09.510Z,1.10
2023-01-15T22:33:14.450Z,1.23
2023-01-15T22:35:19.352Z,1.35
2023-01-15T22:37:24.111Z,1.35
2023-01-15T22:39:30.143Z,1.42
2023-01-15T22:41:50.103Z,1.40
2023-01-15T22:43:54.912Z,1.30
2023-01-15T22:45:59.790Z,1.00
2023-01-15T22:48:04.684Z,1.10
2023-01-15T22:50:10.192Z,1.50
2023-01-15T22:52:15.725Z,1.25
2023-01-15T22:54:21.127Z,1.27
2023-01-15T22:56:27.221Z,1.67
2023-01-15T22:58:34.676Z,1.48
2023-01-15T23:00:39.496Z,1.60
2023-01-15T23:03:05.244Z,1.60
2023-01-15T23:05:11.097Z,1.05
2023-01-15T23:07:15.946Z,1.20
2023-01-15T23:09:21.397Z,1.63
2023-01-15T23:11:26.813Z,1.23
2023-01-15T23:13:36.349Z,1.50
2023-01-15T23:15:41.497Z,1.48
2023-01-15T23:19:53.815Z,1.20
2023-01-15T23:22:00.573Z,1.30
2023-01-15T23:24:05.848Z,1.58
2023-01-15T23:26:12.671Z,1.25
2023-01-15T23:28:17.917Z,1.02
2023-01-15T23:30:25.579Z,1.17
2023-01-15T23:32:30.392Z,1.60
2023-01-15T23:34:35.383Z,1.73
2023-01-15T23:36:40.213Z,1.20
2023-01-15T23:38:46.775Z,1.50
2023-01-15T23:40:54.911Z,1.45
2023-01-15T23:43:12.219Z,1.17
2023-01-15T23:45:29.540Z,1.50
2023-01-15T23:47:36.968Z,1.33
2023-01-15T23:49:42.026Z,1.27
2023-01-15T23:51:46.994Z,1.30
2023-01-15T23:55:59.557Z,1.40
2023-01-15T23:58:04.355Z,1.77
